Fdny Mo 41 — WDG3979 — position and weather

sailwx.info

Track history (hours):
 
Tides and Currents Weather Stations Pressure Air Temp Water Temp Dewpoint Dewpoint Depression Visibility Wind Speed Wind Dir Waves Ship Positions

Fdny Mo 41

Owner: NEW YORK CITY FIRE DEPT, BROOKLYN, NY. More information available from US FCC via Universal Licensing System.

Last reported at 2018-May-24 02:50 UTC. Time now 2018-May-24 08:14 UTC.
Position N 40°42' W 073°58'.

Length 11 m.

Type: Law enforcement. MMSI: 367531670.

Date/timePositionNaut miles runAvg speedWind from/ knotsBaromVisibWave heightAir tempDewpointWater temp
2018-May-24 02:50N 40°42' W 073°58'0 0.0
2018-May-24 02:30N 40°42' W 073°58'0 0.0
2018-May-24 02:00N 40°42' W 073°58'0 0.0
2018-May-24 01:30N 40°42' W 073°58'0 0.0
2018-May-24 01:00N 40°42' W 073°58'0 0.0
2018-May-24 00:30N 40°42' W 073°58'1 1.7
2018-May-24 00:01N 40°43' W 073°58'2 0.1
2018-May-23 12:00N 40°45' W 073°58'3 5.2
2018-May-23 11:30N 40°42' W 073°58'0 0.0
2018-May-23 03:08N 40°42' W 073°58'0 0.8
2018-May-23 03:00N 40°42' W 073°58'6 0.4
2018-May-22 12:27N 40°48' W 073°54'613.9
2018-May-22 12:00N 40°42' W 073°58'0 0.0
2018-May-22 03:47N 40°42' W 073°58'0 0.0
2018-May-22 03:30N 40°42' W 073°58'0 0.0
2018-May-22 03:00N 40°42' W 073°58'0 0.0
2018-May-22 02:31N 40°42' W 073°58'0 0.0
2018-May-22 02:00N 40°42' W 073°58'0 0.0
2018-May-22 01:30N 40°42' W 073°58'3 3.2
2018-May-22 00:42N 40°45' W 073°58'0 0.0
2018-May-21 12:08N 40°45' W 073°57'320.6
2018-May-21 12:00N 40°42' W 073°59'0 0.0
2018-May-21 03:17N 40°42' W 073°58'0 0.0
2018-May-21 03:00N 40°42' W 073°58'0 0.0
2018-May-21 02:30N 40°42' W 073°58'0 0.0
2018-May-21 02:00N 40°42' W 073°58'  
2018-May-18 17:20N 40°42' W 073°58'3 9.9
2018-May-18 17:00N 40°41' W 074°02'1 2.9
2018-May-18 16:30N 40°40' W 074°01'0 0.0
2018-May-18 16:00N 40°40' W 074°01'3 1.1
2018-May-18 13:22N 40°38' W 074°03'615.7
2018-May-18 13:00N 40°42' W 073°58'0 0.0
2018-May-17 17:32N 40°42' W 073°58'0 0.0
2018-May-17 17:30N 40°42' W 073°58'0 0.0
2018-May-17 17:00N 40°42' W 073°58'0 0.0
2018-May-17 16:30N 40°42' W 073°58'0 0.0
2018-May-17 16:00N 40°42' W 073°58'0 0.0
2018-May-17 15:30N 40°42' W 073°58'0 0.0
2018-May-17 15:00N 40°42' W 073°58'0 0.0
2018-May-17 14:30N 40°42' W 073°58'0 0.0
2018-May-17 14:00N 40°42' W 073°58'0 0.0
2018-May-17 13:30N 40°42' W 073°58'0 0.0
2018-May-17 13:00N 40°42' W 073°58'0 0.0
2018-May-17 12:30N 40°42' W 073°58'0 0.0
2018-May-17 12:00N 40°42' W 073°58'0 0.0
2018-May-17 11:30N 40°42' W 073°58'0 0.0
2018-May-17 11:00N 40°42' W 073°58'0 0.0
2018-May-17 10:30N 40°42' W 073°58'0 0.0
2018-May-17 10:00N 40°42' W 073°58'0 0.0
2018-May-17 09:30N 40°42' W 073°58'0 0.0
2018-May-17 08:59N 40°42' W 073°58'0 0.0
2018-May-17 08:30N 40°42' W 073°58'0 0.0
2018-May-17 08:00N 40°42' W 073°58'0 0.0
2018-May-17 07:30N 40°42' W 073°58'0 0.0
2018-May-17 07:00N 40°42' W 073°58'0 0.0
2018-May-17 05:23N 40°42' W 073°58'0 0.0
2018-May-17 05:00N 40°42' W 073°58'0 0.0
2018-May-17 04:30N 40°42' W 073°58'0 0.0
2018-May-17 04:00N 40°42' W 073°58'0 0.0
2018-May-17 03:30N 40°42' W 073°58'0 0.0
2018-May-17 03:00N 40°42' W 073°58'0 0.0
2018-May-17 02:30N 40°42' W 073°58'0 0.0
2018-May-17 01:02N 40°42' W 073°58'0 0.0
2018-May-17 01:00N 40°42' W 073°58'0 0.0
2018-May-17 00:30N 40°42' W 073°58'0 0.0
2018-May-17 00:00N 40°42' W 073°58'0 0.0
2018-May-16 23:30N 40°42' W 073°58'0 0.0
2018-May-16 22:58N 40°42' W 073°58'0 0.0
2018-May-16 22:30N 40°42' W 073°58'0 0.0
2018-May-16 22:00N 40°42' W 073°58'0 0.0
2018-May-16 21:30N 40°42' W 073°58'0 0.0
2018-May-16 21:00N 40°42' W 073°58'0 0.0
2018-May-16 20:30N 40°42' W 073°58'0 0.0
2018-May-16 20:00N 40°42' W 073°58'0 0.0
2018-May-16 19:29N 40°42' W 073°58'0 0.0
2018-May-16 19:00N 40°42' W 073°58'3 5.1
2018-May-16 18:30N 40°44' W 074°01'1 1.1
2018-May-16 18:00N 40°44' W 074°01'0 0.0
2018-May-16 17:31N 40°44' W 074°01'0 0.0
2018-May-16 17:00N 40°44' W 074°01'0 0.0
2018-May-16 16:30N 40°44' W 074°01'0 0.0
2018-May-16 16:00N 40°44' W 074°01'0 0.0
2018-May-16 15:30N 40°44' W 074°01'0 0.0
2018-May-16 15:00N 40°44' W 074°01'0 0.0
2018-May-16 14:28N 40°44' W 074°01'0 0.0
2018-May-16 14:00N 40°44' W 074°01'0 0.0
2018-May-16 13:30N 40°44' W 074°01'0 0.0
2018-May-16 13:00N 40°44' W 074°01'0 0.0
2018-May-16 12:30N 40°44' W 074°01'0 0.0
2018-May-16 12:00N 40°44' W 074°01'0 0.0
2018-May-16 11:30N 40°44' W 074°01'0 0.0
2018-May-16 11:00N 40°44' W 074°01'0 0.0
2018-May-16 10:30N 40°44' W 074°01'0 0.0
2018-May-16 10:00N 40°44' W 074°01'0 0.0
2018-May-16 09:31N 40°44' W 074°01'0 0.0
2018-May-16 09:00N 40°44' W 074°01'0 0.0
2018-May-16 08:30N 40°44' W 074°01'0 0.0
2018-May-16 08:00N 40°44' W 074°01'0 0.0
2018-May-16 07:31N 40°44' W 074°01'0 0.0
2018-May-16 06:59N 40°44' W 074°01'0 0.0
2018-May-16 06:30N 40°44' W 074°01'0 0.0
2018-May-16 06:00N 40°44' W 074°01'0 0.0
2018-May-16 05:30N 40°44' W 074°01'0 0.0
2018-May-16 05:00N 40°44' W 074°01'0 0.0
2018-May-16 04:30N 40°44' W 074°01'0 0.0
2018-May-16 04:00N 40°44' W 074°01'0 0.0
2018-May-16 00:17N 40°44' W 074°01'0 0.0
2018-May-15 23:58N 40°44' W 074°01'0 0.0
2018-May-15 23:25N 40°44' W 074°01'0 0.0
2018-May-15 22:42N 40°44' W 074°01'0 0.0
2018-May-15 22:03N 40°44' W 074°01'0 0.0
2018-May-15 21:53N 40°44' W 074°01'3 8.9
2018-May-15 21:30N 40°41' W 074°02'3 6.6
2018-May-15 21:00N 40°44' W 074°01'0 0.0
2018-May-15 20:29N 40°44' W 074°01'0 0.0
2018-May-15 19:59N 40°44' W 074°01'0 0.0
2018-May-15 19:30N 40°44' W 074°01'3 5.2
2018-May-15 19:00N 40°42' W 073°59'0 0.4
2018-May-15 18:31N 40°42' W 073°58'  
Track history (hours):
 
Tides and Currents Weather Stations Pressure Air Temp Water Temp Dewpoint Dewpoint Depression Visibility Wind Speed Wind Dir Waves Ship Positions

Fdny Mo 41

Owner: NEW YORK CITY FIRE DEPT, BROOKLYN, NY. More information available from US FCC via Universal Licensing System.

Last reported at 2018-May-24 02:50 UTC. Time now 2018-May-24 08:14 UTC.
Position N 40°42' W 073°58'.

Length 11 m.

Type: Law enforcement. MMSI: 367531670.

Date/timePositionNaut miles runAvg speedWind from/ knotsBaromVisibWave heightAir tempDewpointWater temp
2018-May-24 02:50N 40°42' W 073°58'0 0.0
2018-May-24 02:30N 40°42' W 073°58'0 0.0
2018-May-24 02:00N 40°42' W 073°58'0 0.0
2018-May-24 01:30N 40°42' W 073°58'0 0.0
2018-May-24 01:00N 40°42' W 073°58'0 0.0
2018-May-24 00:30N 40°42' W 073°58'1 1.7
2018-May-24 00:01N 40°43' W 073°58'2 0.1
2018-May-23 12:00N 40°45' W 073°58'3 5.2
2018-May-23 11:30N 40°42' W 073°58'0 0.0
2018-May-23 03:08N 40°42' W 073°58'0 0.8
2018-May-23 03:00N 40°42' W 073°58'6 0.4
2018-May-22 12:27N 40°48' W 073°54'613.9
2018-May-22 12:00N 40°42' W 073°58'0 0.0
2018-May-22 03:47N 40°42' W 073°58'0 0.0
2018-May-22 03:30N 40°42' W 073°58'0 0.0
2018-May-22 03:00N 40°42' W 073°58'0 0.0
2018-May-22 02:31N 40°42' W 073°58'0 0.0
2018-May-22 02:00N 40°42' W 073°58'0 0.0
2018-May-22 01:30N 40°42' W 073°58'3 3.2
2018-May-22 00:42N 40°45' W 073°58'0 0.0
2018-May-21 12:08N 40°45' W 073°57'320.6
2018-May-21 12:00N 40°42' W 073°59'0 0.0
2018-May-21 03:17N 40°42' W 073°58'0 0.0
2018-May-21 03:00N 40°42' W 073°58'0 0.0
2018-May-21 02:30N 40°42' W 073°58'0 0.0
2018-May-21 02:00N 40°42' W 073°58'  
2018-May-18 17:20N 40°42' W 073°58'3 9.9
2018-May-18 17:00N 40°41' W 074°02'1 2.9
2018-May-18 16:30N 40°40' W 074°01'0 0.0
2018-May-18 16:00N 40°40' W 074°01'3 1.1
2018-May-18 13:22N 40°38' W 074°03'615.7
2018-May-18 13:00N 40°42' W 073°58'0 0.0
2018-May-17 17:32N 40°42' W 073°58'0 0.0
2018-May-17 17:30N 40°42' W 073°58'0 0.0
2018-May-17 17:00N 40°42' W 073°58'0 0.0
2018-May-17 16:30N 40°42' W 073°58'0 0.0
2018-May-17 16:00N 40°42' W 073°58'0 0.0
2018-May-17 15:30N 40°42' W 073°58'0 0.0
2018-May-17 15:00N 40°42' W 073°58'0 0.0
2018-May-17 14:30N 40°42' W 073°58'0 0.0
2018-May-17 14:00N 40°42' W 073°58'0 0.0
2018-May-17 13:30N 40°42' W 073°58'0 0.0
2018-May-17 13:00N 40°42' W 073°58'0 0.0
2018-May-17 12:30N 40°42' W 073°58'0 0.0
2018-May-17 12:00N 40°42' W 073°58'0 0.0
2018-May-17 11:30N 40°42' W 073°58'0 0.0
2018-May-17 11:00N 40°42' W 073°58'0 0.0
2018-May-17 10:30N 40°42' W 073°58'0 0.0
2018-May-17 10:00N 40°42' W 073°58'0 0.0
2018-May-17 09:30N 40°42' W 073°58'0 0.0
2018-May-17 08:59N 40°42' W 073°58'0 0.0
2018-May-17 08:30N 40°42' W 073°58'0 0.0
2018-May-17 08:00N 40°42' W 073°58'0 0.0
2018-May-17 07:30N 40°42' W 073°58'0 0.0
2018-May-17 07:00N 40°42' W 073°58'0 0.0
2018-May-17 05:23N 40°42' W 073°58'0 0.0
2018-May-17 05:00N 40°42' W 073°58'0 0.0
2018-May-17 04:30N 40°42' W 073°58'0 0.0
2018-May-17 04:00N 40°42' W 073°58'0 0.0
2018-May-17 03:30N 40°42' W 073°58'0 0.0
2018-May-17 03:00N 40°42' W 073°58'0 0.0
2018-May-17 02:30N 40°42' W 073°58'0 0.0
2018-May-17 01:02N 40°42' W 073°58'0 0.0
2018-May-17 01:00N 40°42' W 073°58'0 0.0
2018-May-17 00:30N 40°42' W 073°58'0 0.0
2018-May-17 00:00N 40°42' W 073°58'0 0.0
2018-May-16 23:30N 40°42' W 073°58'0 0.0
2018-May-16 22:58N 40°42' W 073°58'0 0.0
2018-May-16 22:30N 40°42' W 073°58'0 0.0
2018-May-16 22:00N 40°42' W 073°58'0 0.0
2018-May-16 21:30N 40°42' W 073°58'0 0.0
2018-May-16 21:00N 40°42' W 073°58'0 0.0
2018-May-16 20:30N 40°42' W 073°58'0 0.0
2018-May-16 20:00N 40°42' W 073°58'0 0.0
2018-May-16 19:29N 40°42' W 073°58'0 0.0
2018-May-16 19:00N 40°42' W 073°58'3 5.1
2018-May-16 18:30N 40°44' W 074°01'1 1.1
2018-May-16 18:00N 40°44' W 074°01'0 0.0
2018-May-16 17:31N 40°44' W 074°01'0 0.0
2018-May-16 17:00N 40°44' W 074°01'0 0.0
2018-May-16 16:30N 40°44' W 074°01'0 0.0
2018-May-16 16:00N 40°44' W 074°01'0 0.0
2018-May-16 15:30N 40°44' W 074°01'0 0.0
2018-May-16 15:00N 40°44' W 074°01'0 0.0
2018-May-16 14:28N 40°44' W 074°01'0 0.0
2018-May-16 14:00N 40°44' W 074°01'0 0.0
2018-May-16 13:30N 40°44' W 074°01'0 0.0
2018-May-16 13:00N 40°44' W 074°01'0 0.0
2018-May-16 12:30N 40°44' W 074°01'0 0.0
2018-May-16 12:00N 40°44' W 074°01'0 0.0
2018-May-16 11:30N 40°44' W 074°01'0 0.0
2018-May-16 11:00N 40°44' W 074°01'0 0.0
2018-May-16 10:30N 40°44' W 074°01'0 0.0
2018-May-16 10:00N 40°44' W 074°01'0 0.0
2018-May-16 09:31N 40°44' W 074°01'0 0.0
2018-May-16 09:00N 40°44' W 074°01'0 0.0
2018-May-16 08:30N 40°44' W 074°01'0 0.0
2018-May-16 08:00N 40°44' W 074°01'0 0.0
2018-May-16 07:31N 40°44' W 074°01'0 0.0
2018-May-16 06:59N 40°44' W 074°01'0 0.0
2018-May-16 06:30N 40°44' W 074°01'0 0.0
2018-May-16 06:00N 40°44' W 074°01'0 0.0
2018-May-16 05:30N 40°44' W 074°01'0 0.0
2018-May-16 05:00N 40°44' W 074°01'0 0.0
2018-May-16 04:30N 40°44' W 074°01'0 0.0
2018-May-16 04:00N 40°44' W 074°01'0 0.0
2018-May-16 00:17N 40°44' W 074°01'0 0.0
2018-May-15 23:58N 40°44' W 074°01'0 0.0
2018-May-15 23:25N 40°44' W 074°01'0 0.0
2018-May-15 22:42N 40°44' W 074°01'0 0.0
2018-May-15 22:03N 40°44' W 074°01'0 0.0
2018-May-15 21:53N 40°44' W 074°01'3 8.9
2018-May-15 21:30N 40°41' W 074°02'3 6.6
2018-May-15 21:00N 40°44' W 074°01'0 0.0
2018-May-15 20:29N 40°44' W 074°01'0 0.0
2018-May-15 19:59N 40°44' W 074°01'0 0.0
2018-May-15 19:30N 40°44' W 074°01'3 5.2
2018-May-15 19:00N 40°42' W 073°59'0 0.4
2018-May-15 18:31N 40°42' W 073°58'  

Dump ship's entire track history